Time,TemperatureF,DewpointF,PressureIn,WindDirection,WindDirectionDegrees,WindSpeedMPH,WindSpeedGustMPH,Humidity,HourlyPrecipIn,Conditions,Clouds,dailyrainin,SolarRadiationWatts/m^2,SoftwareType,DateUTC
2013-12-09 00:22:00,22.0,8.0,-100.00,North,349,9.0,17.0,54,0.00,,,0.00,1.000000,,2013-12-09 08:22:00,
2013-12-09 00:32:00,22.0,8.0,-100.00,North,349,9.0,17.0,54,0.00,,,0.00,1.000000,,2013-12-09 08:32:00,
2013-12-09 00:42:00,22.0,8.0,-100.00,North,349,9.0,17.0,54,0.00,,,0.00,1.000000,,2013-12-09 08:42:00,
2013-12-09 00:52:00,22.0,8.0,-100.00,North,349,9.0,17.0,54,0.00,,,0.00,1.000000,,2013-12-09 08:52:00,
2013-12-09 01:22:00,22.0,9.0,-100.00,North,352,14.0,20.0,56,0.00,,,0.00,1.000000,,2013-12-09 09:22:00,
2013-12-09 01:33:00,22.0,9.0,-100.00,North,352,14.0,20.0,56,0.00,,,0.00,1.000000,,2013-12-09 09:33:00,
2013-12-09 01:43:00,22.0,9.0,-100.00,North,352,14.0,20.0,56,0.00,,,0.00,1.000000,,2013-12-09 09:43:00,
2013-12-09 01:53:00,22.0,9.0,-100.00,North,352,14.0,20.0,56,0.00,,,0.00,1.000000,,2013-12-09 09:53:00,
2013-12-09 02:23:00,21.0,7.0,-100.00,NNW,348,13.0,22.0,53,0.00,,,0.00,1.000000,,2013-12-09 10:23:00,
2013-12-09 02:33:00,21.0,7.0,-100.00,NNW,348,13.0,22.0,53,0.00,,,0.00,1.000000,,2013-12-09 10:33:00,
2013-12-09 02:43:00,21.0,7.0,-100.00,NNW,348,13.0,22.0,53,0.00,,,0.00,1.000000,,2013-12-09 10:43:00,
2013-12-09 02:52:00,21.0,7.0,-100.00,NNW,348,13.0,22.0,53,0.00,,,0.00,1.000000,,2013-12-09 10:52:00,
2013-12-09 03:42:00,21.0,9.0,-100.00,North,351,10.0,22.0,58,0.00,,,0.00,1.000000,,2013-12-09 11:42:00,
2013-12-09 03:52:00,21.0,9.0,-100.00,North,351,10.0,22.0,58,0.00,,,0.00,1.000000,,2013-12-09 11:52:00,
2013-12-09 04:22:00,19.0,7.0,-100.00,NNW,348,13.0,23.0,60,0.00,,,0.00,1.000000,,2013-12-09 12:22:00,
2013-12-09 04:32:00,19.0,7.0,-100.00,NNW,348,13.0,23.0,60,0.00,,,0.00,1.000000,,2013-12-09 12:32:00,
2013-12-09 04:42:00,19.0,7.0,-100.00,NNW,348,13.0,23.0,60,0.00,,,0.00,1.000000,,2013-12-09 12:42:00,
2013-12-09 04:52:00,19.0,7.0,-100.00,NNW,348,13.0,23.0,60,0.00,,,0.00,1.000000,,2013-12-09 12:52:00,
2013-12-09 05:42:00,19.0,8.0,-100.00,North,353,12.0,22.0,62,0.00,,,0.00,1.000000,,2013-12-09 13:42:00,
2013-12-09 05:52:00,19.0,8.0,-100.00,North,353,12.0,22.0,62,0.00,,,0.00,1.000000,,2013-12-09 13:52:00,
2013-12-09 06:42:00,18.0,7.0,-100.00,North,349,14.0,28.0,62,0.00,,,0.00,1.000000,,2013-12-09 14:42:00,
2013-12-09 06:52:00,18.0,7.0,-100.00,North,349,14.0,28.0,62,0.00,,,0.00,1.000000,,2013-12-09 14:52:00,
2013-12-09 09:42:00,23.0,2.0,-100.00,North,1,11.0,21.0,39,-99.99,,,0.00,34.000000,,2013-12-09 17:42:00,
2013-12-09 09:53:00,23.0,2.0,-100.00,North,1,11.0,21.0,39,-99.99,,,0.00,34.000000,,2013-12-09 17:53:00,
2013-12-09 10:22:00,24.0,5.0,-100.00,North,358,14.0,27.0,43,0.00,,,0.00,528.000000,,2013-12-09 18:22:00,
2013-12-09 10:32:00,24.0,5.0,-100.00,North,358,14.0,27.0,43,0.00,,,0.00,528.000000,,2013-12-09 18:32:00,
2013-12-09 10:43:00,24.0,5.0,-100.00,North,358,14.0,27.0,43,0.00,,,0.00,528.000000,,2013-12-09 18:43:00,
2013-12-09 10:52:00,24.0,5.0,-100.00,North,358,14.0,27.0,43,0.00,,,0.00,528.000000,,2013-12-09 18:52:00,
2013-12-09 11:42:00,29.0,4.0,-100.00,North,4,9.0,25.0,34,0.00,,,0.00,697.000000,,2013-12-09 19:42:00,
2013-12-09 11:52:00,29.0,4.0,-100.00,North,4,9.0,25.0,34,0.00,,,0.00,697.000000,,2013-12-09 19:52:00,
2013-12-09 12:42:00,31.0,-2.0,-100.00,North,3,11.0,21.0,24,0.00,,,0.00,749.000000,,2013-12-09 20:42:00,
2013-12-09 12:52:00,31.0,-2.0,-100.00,North,3,11.0,21.0,24,0.00,,,0.00,749.000000,,2013-12-09 20:52:00,
2013-12-09 13:43:00,31.0,-2.0,-100.00,North,2,15.0,29.0,24,0.00,,,0.00,728.000000,,2013-12-09 21:43:00,
2013-12-09 13:53:00,31.0,-2.0,-100.00,North,2,15.0,29.0,24,0.00,,,0.00,728.000000,,2013-12-09 21:53:00,
2013-12-09 14:22:00,31.0,-2.0,-100.00,North,352,15.0,28.0,23,0.00,,,0.00,639.000000,,2013-12-09 22:22:00,
2013-12-09 14:33:00,31.0,-2.0,-100.00,North,352,15.0,28.0,23,0.00,,,0.00,639.000000,,2013-12-09 22:33:00,
2013-12-09 14:43:00,31.0,-2.0,-100.00,North,352,15.0,28.0,23,0.00,,,0.00,639.000000,,2013-12-09 22:43:00,
2013-12-09 14:53:00,31.0,-2.0,-100.00,North,352,15.0,28.0,23,0.00,,,0.00,639.000000,,2013-12-09 22:53:00,
2013-12-09 15:22:00,32.0,-3.0,-100.00,North,357,13.0,27.0,21,0.00,,,0.00,483.000000,,2013-12-09 23:22:00,
2013-12-09 15:33:00,32.0,-3.0,-100.00,North,357,13.0,27.0,21,0.00,,,0.00,483.000000,,2013-12-09 23:33:00,
2013-12-09 15:43:00,32.0,-3.0,-100.00,North,357,13.0,27.0,21,0.00,,,0.00,483.000000,,2013-12-09 23:43:00,
2013-12-09 15:53:00,32.0,-3.0,-100.00,North,357,13.0,27.0,21,0.00,,,0.00,483.000000,,2013-12-09 23:53:00,
2013-12-09 16:21:00,30.0,-5.0,-100.00,North,0,13.0,35.0,21,0.00,,,0.00,284.000000,,2013-12-10 00:21:00,
2013-12-09 16:32:00,30.0,-5.0,-100.00,North,0,13.0,35.0,21,0.00,,,0.00,284.000000,,2013-12-10 00:32:00,
2013-12-09 16:42:00,30.0,-5.0,-100.00,North,0,13.0,35.0,21,0.00,,,0.00,284.000000,,2013-12-10 00:42:00,
2013-12-09 16:52:00,30.0,-5.0,-100.00,North,0,13.0,35.0,21,0.00,,,0.00,284.000000,,2013-12-10 00:52:00,
2013-12-09 17:22:00,27.0,-7.0,-100.00,North,357,11.0,24.0,22,0.00,,,0.00,50.000000,,2013-12-10 01:22:00,
2013-12-09 17:32:00,27.0,-7.0,-100.00,North,357,11.0,24.0,22,0.00,,,0.00,50.000000,,2013-12-10 01:32:00,
2013-12-09 17:42:00,27.0,-7.0,-100.00,North,357,11.0,24.0,22,0.00,,,0.00,50.000000,,2013-12-10 01:42:00,
2013-12-09 17:52:00,27.0,-7.0,-100.00,North,357,11.0,24.0,22,0.00,,,0.00,50.000000,,2013-12-10 01:52:00,
2013-12-09 18:42:00,26.0,-8.0,-100.00,North,5,12.0,23.0,22,0.00,,,0.00,1.000000,,2013-12-10 02:42:00,
2013-12-09 18:52:00,26.0,-8.0,-100.00,North,5,12.0,23.0,22,0.00,,,0.00,1.000000,,2013-12-10 02:52:00,
2013-12-09 19:43:00,26.0,-7.0,-100.00,North,3,14.0,27.0,23,0.00,,,0.00,1.000000,,2013-12-10 03:43:00,
2013-12-09 19:53:00,26.0,-7.0,-100.00,North,3,14.0,27.0,23,0.00,,,0.00,1.000000,,2013-12-10 03:53:00,
2013-12-09 20:43:00,24.0,-7.0,-100.00,North,354,15.0,31.0,25,0.00,,,0.00,1.000000,,2013-12-10 04:43:00,
2013-12-09 20:52:00,24.0,-7.0,-100.00,North,354,15.0,31.0,25,0.00,,,0.00,1.000000,,2013-12-10 04:52:00,
2013-12-09 21:22:00,23.0,-5.0,-100.00,North,355,16.0,26.0,28,0.00,,,0.00,1.000000,,2013-12-10 05:22:00,
2013-12-09 21:33:00,23.0,-5.0,-100.00,North,355,16.0,26.0,28,0.00,,,0.00,1.000000,,2013-12-10 05:33:00,
2013-12-09 21:42:00,23.0,-5.0,-100.00,North,355,16.0,26.0,28,0.00,,,0.00,1.000000,,2013-12-10 05:42:00,
2013-12-09 21:52:00,23.0,-5.0,-100.00,North,355,16.0,26.0,28,0.00,,,0.00,1.000000,,2013-12-10 05:52:00,
2013-12-09 22:22:00,22.0,-5.0,-100.00,North,349,15.0,28.0,29,0.00,,,0.00,1.000000,,2013-12-10 06:22:00,
2013-12-09 22:32:00,22.0,-5.0,-100.00,North,349,15.0,28.0,29,0.00,,,0.00,1.000000,,2013-12-10 06:32:00,
2013-12-09 22:42:00,22.0,-5.0,-100.00,North,349,15.0,28.0,29,0.00,,,0.00,1.000000,,2013-12-10 06:42:00,
2013-12-09 22:52:00,22.0,-5.0,-100.00,North,349,15.0,28.0,29,0.00,,,0.00,1.000000,,2013-12-10 06:52:00,
2013-12-09 23:21:00,22.0,-6.0,-100.00,NNW,348,16.0,28.0,28,0.00,,,0.00,1.000000,,2013-12-10 07:21:00,
2013-12-09 23:33:00,22.0,-6.0,-100.00,NNW,348,16.0,28.0,28,0.00,,,0.00,1.000000,,2013-12-10 07:33:00,
2013-12-09 23:42:00,22.0,-6.0,-100.00,NNW,348,16.0,28.0,28,0.00,,,0.00,1.000000,,2013-12-10 07:42:00,
2013-12-09 23:52:00,22.0,-6.0,-100.00,NNW,348,16.0,28.0,28,0.00,,,0.00,1.000000,,2013-12-10 07:52:00,